createdAt,value
2023-02-12T00:01:33.108Z,2.76
2023-02-12T00:05:00.153Z,2.79
2023-02-12T00:08:27.187Z,2.80
2023-02-12T00:11:54.054Z,2.83
2023-02-12T00:15:21.635Z,2.82
2023-02-12T00:18:51.367Z,2.82
2023-02-12T00:22:19.407Z,2.81
2023-02-12T00:25:47.668Z,2.75
2023-02-12T00:29:14.555Z,2.65
2023-02-12T00:32:41.210Z,2.60
2023-02-12T00:36:10.711Z,2.53
2023-02-12T00:39:41.844Z,2.47
2023-02-12T00:43:09.026Z,2.39
2023-02-12T00:46:35.963Z,2.32
2023-02-12T00:50:03.017Z,2.22
2023-02-12T00:53:30.603Z,2.13
2023-02-12T00:56:58.226Z,2.09
2023-02-12T01:00:30.590Z,2.03
2023-02-12T01:03:58.513Z,2.00
2023-02-12T01:07:27.416Z,2.00
2023-02-12T01:11:00.809Z,2.00
2023-02-12T01:14:28.631Z,2.01
2023-02-12T01:17:56.650Z,2.02
2023-02-12T01:21:26.866Z,2.04
2023-02-12T01:24:56.806Z,2.04
2023-02-12T01:28:23.453Z,2.03
2023-02-12T01:31:50.467Z,2.02
2023-02-12T01:35:17.601Z,2.03
2023-02-12T01:38:45.750Z,1.97
2023-02-12T01:42:19.158Z,1.91
2023-02-12T01:45:55.003Z,1.85
2023-02-12T01:49:25.699Z,1.77
2023-02-12T01:52:57.653Z,1.69
2023-02-12T01:56:26.548Z,1.58
2023-02-12T01:59:57.994Z,1.51
2023-02-12T02:03:26.734Z,1.45
2023-02-12T02:06:58.546Z,1.39
2023-02-12T02:10:28.200Z,1.35
2023-02-12T02:14:14.179Z,1.32
2023-02-12T02:17:54.097Z,1.30
2023-02-12T02:22:02.324Z,1.30
2023-02-12T02:25:52.017Z,1.31
2023-02-12T02:29:47.840Z,1.34
2023-02-12T02:33:29.578Z,1.37
2023-02-12T02:37:04.838Z,1.37
2023-02-12T02:40:41.697Z,1.33
2023-02-12T02:44:17.630Z,1.29
2023-02-12T02:47:49.690Z,1.25
2023-02-12T02:51:23.856Z,1.19
2023-02-12T02:54:55.900Z,1.12
2023-02-12T02:58:30.647Z,1.07
2023-02-12T03:02:08.593Z,1.00
2023-02-12T03:05:39.738Z,0.92
2023-02-12T03:09:14.000Z,0.85
2023-02-12T03:12:50.972Z,0.75
2023-02-12T03:16:24.790Z,0.68
2023-02-12T03:19:57.602Z,0.61
2023-02-12T03:23:29.364Z,0.56
2023-02-12T03:27:04.532Z,0.51
2023-02-12T03:30:41.971Z,0.47
2023-02-12T03:34:15.054Z,0.48
2023-02-12T03:37:47.916Z,0.51
2023-02-12T03:41:22.529Z,0.54
2023-02-12T03:44:59.071Z,0.57
2023-02-12T03:48:36.120Z,0.61
2023-02-12T03:52:06.054Z,0.62
2023-02-12T03:55:38.210Z,0.55
2023-02-12T03:59:06.898Z,0.52
2023-02-12T04:02:34.214Z,0.47
2023-02-12T04:06:03.870Z,0.41
2023-02-12T04:09:32.769Z,0.36
2023-02-12T04:13:13.156Z,0.30
2023-02-12T04:16:48.175Z,0.22
2023-02-12T04:20:24.880Z,0.16
2023-02-12T04:24:03.592Z,0.10
2023-02-12T04:27:44.800Z,0.04
2023-02-12T04:31:22.036Z,-0.04
2023-02-12T04:35:01.707Z,-0.09
2023-02-12T04:38:35.199Z,-0.13
2023-02-12T04:42:01.760Z,-0.15
2023-02-12T04:45:35.079Z,-0.19
2023-02-12T04:49:06.867Z,-0.19
2023-02-12T04:52:36.572Z,-0.15
2023-02-12T04:56:05.320Z,-0.16
2023-02-12T04:59:40.239Z,-0.13
2023-02-12T05:03:10.537Z,-0.13
2023-02-12T05:06:40.411Z,-0.13
2023-02-12T05:10:11.031Z,-0.12
2023-02-12T05:13:40.360Z,-0.14
2023-02-12T05:17:08.886Z,-0.16
2023-02-12T05:20:37.069Z,-0.22
2023-02-12T05:24:04.779Z,-0.28
2023-02-12T05:27:32.951Z,-0.38
2023-02-12T05:31:03.621Z,-0.45
2023-02-12T05:34:33.014Z,-0.49
2023-02-12T05:38:00.426Z,-0.52
2023-02-12T05:41:28.849Z,-0.54
2023-02-12T05:44:58.867Z,-0.56
2023-02-12T05:48:27.132Z,-0.59
2023-02-12T05:51:55.583Z,-0.62
2023-02-12T05:55:23.120Z,-0.65
2023-02-12T05:58:56.524Z,-0.75
2023-02-12T06:02:24.178Z,-0.77
2023-02-12T06:06:00.159Z,-0.75
2023-02-12T06:09:30.650Z,-0.70
2023-02-12T06:12:59.379Z,-0.64
2023-02-12T06:16:28.833Z,-0.58
2023-02-12T06:19:56.785Z,-0.52
2023-02-12T06:23:24.735Z,-0.47
2023-02-12T06:26:52.882Z,-0.46
2023-02-12T06:30:20.953Z,-0.43
2023-02-12T06:33:49.087Z,-0.44
2023-02-12T06:37:16.087Z,-0.48
2023-02-12T06:40:43.449Z,-0.52
2023-02-12T06:44:12.792Z,-0.54
2023-02-12T06:47:39.379Z,-0.54
2023-02-12T06:51:12.335Z,-0.56
2023-02-12T06:54:39.362Z,-0.61
2023-02-12T06:58:07.391Z,-0.65
2023-02-12T07:01:34.221Z,-0.67
2023-02-12T07:05:01.794Z,-0.68
2023-02-12T07:08:28.569Z,-0.68
2023-02-12T07:11:56.791Z,-0.68
2023-02-12T07:15:28.596Z,-0.66
2023-02-12T07:18:55.832Z,-0.62
2023-02-12T07:22:23.138Z,-0.58
2023-02-12T07:26:00.295Z,-0.50
2023-02-12T07:29:27.745Z,-0.39
2023-02-12T07:32:54.646Z,-0.26
2023-02-12T07:36:25.615Z,-0.13
2023-02-12T07:39:52.663Z,0.02
2023-02-12T07:43:19.413Z,0.16
2023-02-12T07:46:48.679Z,0.28
2023-02-12T07:50:18.409Z,0.39
2023-02-12T07:53:46.370Z,0.47
2023-02-12T07:57:13.857Z,0.53
2023-02-12T08:00:40.604Z,0.58
2023-02-12T08:04:11.459Z,0.63
2023-02-12T08:07:38.759Z,0.70
2023-02-12T08:11:07.000Z,0.76
2023-02-12T08:14:34.005Z,0.82
2023-02-12T08:18:01.861Z,0.89
2023-02-12T08:21:30.393Z,0.93
2023-02-12T08:24:58.860Z,1.00
2023-02-12T08:28:26.050Z,1.07
2023-02-12T08:31:57.279Z,1.15
2023-02-12T08:35:25.198Z,1.27
2023-02-12T08:38:52.382Z,1.36
2023-02-12T08:42:25.910Z,1.43
2023-02-12T08:45:52.490Z,1.56
2023-02-12T08:49:22.060Z,1.66
2023-02-12T08:52:49.266Z,1.81
2023-02-12T08:56:20.153Z,1.96
2023-02-12T08:59:47.384Z,2.12
2023-02-12T09:03:14.674Z,2.19
2023-02-12T09:06:41.701Z,2.27
2023-02-12T09:10:12.469Z,2.36
2023-02-12T09:13:40.273Z,2.43
2023-02-12T09:17:07.283Z,2.47
2023-02-12T09:20:38.701Z,2.48
2023-02-12T09:24:06.285Z,2.47
2023-02-12T09:27:33.761Z,2.46
2023-02-12T09:31:06.256Z,2.44
2023-02-12T09:34:35.583Z,2.45
2023-02-12T09:38:02.527Z,2.48
2023-02-12T09:42:11.720Z,2.51
2023-02-12T09:45:45.245Z,2.57
2023-02-12T09:49:19.020Z,2.63
2023-02-12T09:52:48.693Z,2.75
2023-02-12T09:56:22.438Z,2.90
2023-02-12T09:59:54.152Z,2.99
2023-02-12T10:03:21.400Z,3.07
2023-02-12T10:06:57.679Z,3.14
2023-02-12T10:10:44.026Z,3.15
2023-02-12T10:14:46.279Z,3.14
2023-02-12T10:18:37.512Z,3.09
2023-02-12T10:22:15.276Z,3.08
2023-02-12T10:25:54.057Z,3.03
2023-02-12T10:29:24.811Z,3.01
2023-02-12T10:32:56.280Z,3.00
2023-02-12T10:36:36.085Z,3.03
2023-02-12T10:40:06.539Z,3.09
2023-02-12T10:43:34.046Z,3.14
2023-02-12T10:47:02.056Z,3.20
2023-02-12T10:50:43.677Z,3.29
2023-02-12T10:54:35.952Z,3.40
2023-02-12T10:58:19.287Z,3.49
2023-02-12T11:01:51.266Z,3.54
2023-02-12T11:05:27.331Z,3.57
2023-02-12T11:08:54.915Z,3.61
2023-02-12T11:12:31.708Z,3.64
2023-02-12T11:16:02.305Z,3.69
2023-02-12T11:19:36.555Z,3.74
2023-02-12T11:23:08.559Z,3.72
2023-02-12T11:26:36.677Z,3.68
2023-02-12T11:30:19.764Z,3.67
2023-02-12T11:33:53.726Z,3.61
2023-02-12T11:37:21.862Z,3.60
2023-02-12T11:40:49.831Z,3.61
2023-02-12T11:44:25.347Z,3.59
2023-02-12T11:47:53.836Z,3.60
2023-02-12T11:51:31.578Z,3.68
2023-02-12T11:55:04.476Z,3.73
2023-02-12T11:58:37.169Z,3.77
2023-02-12T12:02:19.905Z,3.77
2023-02-12T12:05:52.426Z,3.76
2023-02-12T12:09:27.426Z,3.73
2023-02-12T12:12:58.924Z,3.75
2023-02-12T12:16:58.128Z,3.80
2023-02-12T12:20:31.299Z,3.85
2023-02-12T12:24:05.764Z,3.89
2023-02-12T12:27:59.476Z,3.94
2023-02-12T12:31:31.722Z,4.00
2023-02-12T12:34:58.070Z,3.96
2023-02-12T12:38:40.940Z,3.89
2023-02-12T12:42:45.538Z,3.86
2023-02-12T12:46:33.467Z,3.83
2023-02-12T12:50:23.128Z,3.83
2023-02-12T12:54:03.631Z,3.87
2023-02-12T12:57:45.173Z,3.87
2023-02-12T13:01:45.765Z,3.93
2023-02-12T13:05:48.636Z,3.97
2023-02-12T13:09:38.590Z,4.01
2023-02-12T13:13:17.928Z,4.07
2023-02-12T13:16:51.457Z,4.16
2023-02-12T13:20:28.464Z,4.25
2023-02-12T13:24:01.391Z,4.32
2023-02-12T13:27:34.538Z,4.35
2023-02-12T13:31:01.386Z,4.40
2023-02-12T13:34:32.547Z,4.45
2023-02-12T13:38:01.805Z,4.55
2023-02-12T13:41:30.226Z,4.62
2023-02-12T13:45:07.982Z,4.64
2023-02-12T13:48:55.014Z,4.66
2023-02-12T13:52:30.664Z,4.69
2023-02-12T13:56:21.012Z,4.69
2023-02-12T13:59:50.642Z,4.70
2023-02-12T14:03:17.953Z,4.68
2023-02-12T14:06:55.992Z,4.65
2023-02-12T14:10:31.293Z,4.63
2023-02-12T14:14:00.146Z,4.63
2023-02-12T14:18:07.634Z,4.65
2023-02-12T14:21:42.515Z,4.68
2023-02-12T14:25:34.059Z,4.74
2023-02-12T14:29:04.813Z,4.82
2023-02-12T14:33:02.134Z,4.85
2023-02-12T14:36:44.199Z,4.88
2023-02-12T14:40:47.089Z,4.90
2023-02-12T14:44:56.514Z,4.93
2023-02-12T14:48:48.984Z,4.96
2023-02-12T14:52:24.976Z,4.97
2023-02-12T14:55:52.703Z,5.00
2023-02-12T14:59:22.660Z,5.00
2023-02-12T15:02:55.625Z,5.00
2023-02-12T15:06:28.628Z,4.98
2023-02-12T15:10:00.799Z,4.96
2023-02-12T15:13:34.321Z,4.92
2023-02-12T15:17:04.986Z,4.88
2023-02-12T15:20:36.843Z,4.87
2023-02-12T15:24:08.861Z,4.87
2023-02-12T15:27:35.687Z,4.88
2023-02-12T15:31:04.869Z,4.94
2023-02-12T15:34:38.247Z,4.95
2023-02-12T15:38:03.836Z,5.00
2023-02-12T15:41:42.128Z,5.04
2023-02-12T15:45:25.412Z,5.12
2023-02-12T15:48:51.917Z,5.18
2023-02-12T15:52:24.997Z,5.24
2023-02-12T15:55:57.583Z,5.28
2023-02-12T15:59:30.341Z,5.30
2023-02-12T16:03:07.941Z,5.31
2023-02-12T16:06:39.269Z,5.34
2023-02-12T16:10:08.484Z,5.35
2023-02-12T16:13:38.699Z,5.33
2023-02-12T16:17:19.408Z,5.30
2023-02-12T16:20:47.059Z,5.26
2023-02-12T16:24:27.544Z,5.19
2023-02-12T16:28:00.182Z,5.14
2023-02-12T16:31:29.413Z,5.12
2023-02-12T16:35:05.769Z,5.10
2023-02-12T16:38:48.321Z,5.08
2023-02-12T16:42:20.384Z,5.10
2023-02-12T16:45:48.077Z,5.12
2023-02-12T16:49:18.761Z,5.16
2023-02-12T16:52:46.010Z,5.19
2023-02-12T16:56:21.408Z,5.23
2023-02-12T16:59:48.514Z,5.27
2023-02-12T17:03:20.838Z,5.29
2023-02-12T17:06:47.848Z,5.30
2023-02-12T17:10:17.819Z,5.30
2023-02-12T17:13:44.882Z,5.29
2023-02-12T17:17:12.460Z,5.28
2023-02-12T17:20:39.847Z,5.27
2023-02-12T17:24:09.934Z,5.27
2023-02-12T17:27:38.180Z,5.27
2023-02-12T17:31:06.609Z,5.31
2023-02-12T17:34:46.597Z,5.36
2023-02-12T17:38:15.379Z,5.41
2023-02-12T17:41:42.331Z,5.40
2023-02-12T17:45:10.786Z,5.39
2023-02-12T17:48:37.259Z,5.39
2023-02-12T17:52:07.199Z,5.32
2023-02-12T17:55:40.289Z,5.27
2023-02-12T17:59:07.792Z,5.19
2023-02-12T18:02:34.742Z,5.14
2023-02-12T18:06:01.585Z,5.09
2023-02-12T18:09:28.145Z,5.03
2023-02-12T18:12:55.401Z,5.01
2023-02-12T18:16:23.282Z,5.00
2023-02-12T18:19:52.028Z,5.02
2023-02-12T18:23:19.845Z,5.05
2023-02-12T18:26:47.112Z,5.09
2023-02-12T18:30:15.658Z,5.14
2023-02-12T18:33:44.166Z,5.18
2023-02-12T18:37:13.733Z,5.19
2023-02-12T18:40:44.526Z,5.23
2023-02-12T18:44:18.878Z,5.27
2023-02-12T18:47:47.694Z,5.31
2023-02-12T18:51:18.131Z,5.34
2023-02-12T18:54:48.064Z,5.36
2023-02-12T18:58:17.075Z,5.39
2023-02-12T19:01:43.941Z,5.41
2023-02-12T19:05:12.914Z,5.46
2023-02-12T19:08:42.162Z,5.50
2023-02-12T19:12:11.030Z,5.51
2023-02-12T19:15:42.909Z,5.51
2023-02-12T19:19:12.640Z,5.48
2023-02-12T19:22:40.836Z,5.48
2023-02-12T19:26:10.360Z,5.49
2023-02-12T19:29:36.989Z,5.47
2023-02-12T19:33:04.309Z,5.43
2023-02-12T19:36:35.480Z,5.40
2023-02-12T19:40:03.200Z,5.38
2023-02-12T19:43:30.184Z,5.36
2023-02-12T19:46:59.800Z,5.35
2023-02-12T19:50:26.416Z,5.38
2023-02-12T19:53:53.653Z,5.43
2023-02-12T19:57:24.011Z,5.48
2023-02-12T20:00:57.098Z,5.51
2023-02-12T20:04:25.677Z,5.58
2023-02-12T20:07:58.074Z,5.62
2023-02-12T20:11:29.092Z,5.67
2023-02-12T20:15:01.238Z,5.72
2023-02-12T20:18:28.560Z,5.75
2023-02-12T20:21:57.796Z,5.77
2023-02-12T20:25:25.993Z,5.79
2023-02-12T20:28:53.612Z,5.80
2023-02-12T20:32:22.382Z,5.81
2023-02-12T20:35:59.710Z,5.82
2023-02-12T20:39:28.568Z,5.83
2023-02-12T20:42:55.805Z,5.80
2023-02-12T20:46:30.606Z,5.82
2023-02-12T20:49:59.327Z,5.81
2023-02-12T20:53:35.380Z,5.84
2023-02-12T20:57:07.193Z,5.87
2023-02-12T21:00:35.508Z,5.88
2023-02-12T21:04:06.264Z,5.88
2023-02-12T21:07:36.372Z,5.84
2023-02-12T21:11:05.652Z,5.80
2023-02-12T21:14:34.432Z,5.78
2023-02-12T21:18:04.092Z,5.75
2023-02-12T21:21:33.857Z,5.71
2023-02-12T21:25:01.752Z,5.69
2023-02-12T21:28:29.745Z,5.67
2023-02-12T21:32:01.883Z,5.64
2023-02-12T21:35:29.361Z,5.68
2023-02-12T21:38:57.665Z,5.71
2023-02-12T21:42:30.253Z,5.75
2023-02-12T21:45:59.087Z,5.78
2023-02-12T21:49:28.548Z,5.82
2023-02-12T21:52:56.910Z,5.88
2023-02-12T21:56:29.596Z,5.93
2023-02-12T21:59:59.341Z,5.96
2023-02-12T22:03:31.201Z,6.00
2023-02-12T22:07:03.771Z,6.03
2023-02-12T22:10:34.994Z,6.04
2023-02-12T22:14:04.667Z,6.03
2023-02-12T22:17:35.557Z,6.03
2023-02-12T22:21:05.687Z,6.06
2023-02-12T22:24:33.353Z,6.08
2023-02-12T22:28:02.256Z,6.10
2023-02-12T22:31:32.900Z,6.12
2023-02-12T22:34:59.687Z,6.13
2023-02-12T22:38:26.947Z,6.10
2023-02-12T22:41:54.702Z,6.06
2023-02-12T22:45:21.825Z,6.00
2023-02-12T22:48:49.914Z,5.98
2023-02-12T22:52:16.821Z,5.96
2023-02-12T22:55:45.487Z,5.94
2023-02-12T22:59:14.061Z,5.93
2023-02-12T23:02:42.361Z,5.91
2023-02-12T23:06:12.162Z,5.93
2023-02-12T23:09:41.754Z,5.97
2023-02-12T23:13:21.285Z,6.00
2023-02-12T23:16:55.891Z,6.05
2023-02-12T23:20:23.998Z,6.08
2023-02-12T23:23:50.968Z,6.11
2023-02-12T23:27:23.892Z,6.16
2023-02-12T23:30:54.377Z,6.18
2023-02-12T23:34:21.588Z,6.19
2023-02-12T23:37:48.263Z,6.25
2023-02-12T23:41:15.096Z,6.27
2023-02-12T23:44:42.105Z,6.28
2023-02-12T23:48:09.035Z,6.29
2023-02-12T23:51:36.944Z,6.27
2023-02-12T23:55:16.621Z,6.23
2023-02-12T23:58:43.735Z,6.16
